sensor_id;sensor_type;location;lat;lon;timestamp;temperature;humidity
22908;DHT22;11620;50.050;8.690;2023-07-24T00:02:29;20.00;99.90
22908;DHT22;11620;50.050;8.690;2023-07-24T00:05:15;20.10;99.90
22908;DHT22;11620;50.050;8.690;2023-07-24T00:08:02;20.00;99.90
22908;DHT22;11620;50.050;8.690;2023-07-24T00:10:48;20.10;99.90
22908;DHT22;11620;50.050;8.690;2023-07-24T00:13:34;19.90;99.90
22908;DHT22;11620;50.050;8.690;2023-07-24T00:16:21;19.90;99.90
22908;DHT22;11620;50.050;8.690;2023-07-24T00:19:07;20.00;99.90
22908;DHT22;11620;50.050;8.690;2023-07-24T00:21:53;20.00;99.90
22908;DHT22;11620;50.050;8.690;2023-07-24T00:24:40;19.90;99.90
22908;DHT22;11620;50.050;8.690;2023-07-24T00:27:26;20.00;99.90
22908;DHT22;11620;50.050;8.690;2023-07-24T00:30:13;20.10;99.90
22908;DHT22;11620;50.050;8.690;2023-07-24T00:33:00;20.20;99.90
22908;DHT22;11620;50.050;8.690;2023-07-24T00:35:46;20.30;99.90
22908;DHT22;11620;50.050;8.690;2023-07-24T00:38:32;20.20;99.90
22908;DHT22;11620;50.050;8.690;2023-07-24T00:41:18;20.10;99.90
22908;DHT22;11620;50.050;8.690;2023-07-24T00:44:05;20.10;99.90
22908;DHT22;11620;50.050;8.690;2023-07-24T00:46:51;20.10;99.90
22908;DHT22;11620;50.050;8.690;2023-07-24T00:49:38;20.10;99.90
22908;DHT22;11620;50.050;8.690;2023-07-24T00:52:25;20.20;99.90
22908;DHT22;11620;50.050;8.690;2023-07-24T00:55:13;20.20;99.90
22908;DHT22;11620;50.050;8.690;2023-07-24T00:58:00;20.20;99.90
22908;DHT22;11620;50.050;8.690;2023-07-24T01:00:46;20.20;99.90
22908;DHT22;11620;50.050;8.690;2023-07-24T01:03:34;20.20;99.90
22908;DHT22;11620;50.050;8.690;2023-07-24T01:06:20;20.20;99.90
22908;DHT22;11620;50.050;8.690;2023-07-24T01:09:06;20.20;99.90
22908;DHT22;11620;50.050;8.690;2023-07-24T01:12:07;20.20;99.90
22908;DHT22;11620;50.050;8.690;2023-07-24T01:15:16;20.10;99.90
22908;DHT22;11620;50.050;8.690;2023-07-24T01:18:08;20.10;99.90
22908;DHT22;11620;50.050;8.690;2023-07-24T01:20:57;20.10;99.90
22908;DHT22;11620;50.050;8.690;2023-07-24T01:27:20;20.10;99.90
22908;DHT22;11620;50.050;8.690;2023-07-24T01:30:07;20.20;99.90
22908;DHT22;11620;50.050;8.690;2023-07-24T01:32:53;20.30;99.90
22908;DHT22;11620;50.050;8.690;2023-07-24T01:35:41;20.30;99.90
22908;DHT22;11620;50.050;8.690;2023-07-24T01:38:31;20.30;99.90
22908;DHT22;11620;50.050;8.690;2023-07-24T01:41:19;20.30;99.90
22908;DHT22;11620;50.050;8.690;2023-07-24T01:44:06;20.40;99.90
22908;DHT22;11620;50.050;8.690;2023-07-24T01:46:52;20.40;99.90
22908;DHT22;11620;50.050;8.690;2023-07-24T01:49:39;20.30;99.90
22908;DHT22;11620;50.050;8.690;2023-07-24T01:52:26;20.20;99.90
22908;DHT22;11620;50.050;8.690;2023-07-24T01:55:12;20.10;99.90
22908;DHT22;11620;50.050;8.690;2023-07-24T01:57:58;19.90;99.90
22908;DHT22;11620;50.050;8.690;2023-07-24T02:00:45;19.80;99.90
22908;DHT22;11620;50.050;8.690;2023-07-24T02:03:31;19.70;99.90
22908;DHT22;11620;50.050;8.690;2023-07-24T02:06:17;19.70;99.90
22908;DHT22;11620;50.050;8.690;2023-07-24T02:09:04;19.60;99.90
22908;DHT22;11620;50.050;8.690;2023-07-24T02:11:50;19.50;99.90
22908;DHT22;11620;50.050;8.690;2023-07-24T02:14:36;19.50;99.90
22908;DHT22;11620;50.050;8.690;2023-07-24T02:17:23;19.50;99.90
22908;DHT22;11620;50.050;8.690;2023-07-24T02:20:09;19.50;99.90
22908;DHT22;11620;50.050;8.690;2023-07-24T02:22:56;19.50;99.90
22908;DHT22;11620;50.050;8.690;2023-07-24T02:25:43;19.50;99.90
22908;DHT22;11620;50.050;8.690;2023-07-24T02:28:29;19.70;99.90
22908;DHT22;11620;50.050;8.690;2023-07-24T02:31:15;19.70;99.90
22908;DHT22;11620;50.050;8.690;2023-07-24T02:34:02;19.80;99.90
22908;DHT22;11620;50.050;8.690;2023-07-24T02:36:48;19.80;99.90
22908;DHT22;11620;50.050;8.690;2023-07-24T02:39:34;19.80;99.90
22908;DHT22;11620;50.050;8.690;2023-07-24T02:42:21;19.60;99.90
22908;DHT22;11620;50.050;8.690;2023-07-24T02:45:07;19.40;99.90
22908;DHT22;11620;50.050;8.690;2023-07-24T02:47:56;19.20;99.90
22908;DHT22;11620;50.050;8.690;2023-07-24T02:50:43;19.20;99.90
22908;DHT22;11620;50.050;8.690;2023-07-24T02:53:29;19.10;99.90
22908;DHT22;11620;50.050;8.690;2023-07-24T02:56:15;19.00;99.90
22908;DHT22;11620;50.050;8.690;2023-07-24T02:59:02;19.00;99.90
22908;DHT22;11620;50.050;8.690;2023-07-24T03:01:48;18.90;99.90
22908;DHT22;11620;50.050;8.690;2023-07-24T03:04:34;18.90;99.90
22908;DHT22;11620;50.050;8.690;2023-07-24T03:07:21;18.90;99.90
22908;DHT22;11620;50.050;8.690;2023-07-24T03:10:07;18.70;99.90
22908;DHT22;11620;50.050;8.690;2023-07-24T03:12:54;18.60;99.90
22908;DHT22;11620;50.050;8.690;2023-07-24T03:15:40;18.60;99.90
22908;DHT22;11620;50.050;8.690;2023-07-24T03:18:26;18.60;99.90
22908;DHT22;11620;50.050;8.690;2023-07-24T03:21:13;18.60;99.90
22908;DHT22;11620;50.050;8.690;2023-07-24T03:23:59;18.60;99.90
22908;DHT22;11620;50.050;8.690;2023-07-24T03:26:45;18.80;99.90
22908;DHT22;11620;50.050;8.690;2023-07-24T03:29:32;18.80;99.90
22908;DHT22;11620;50.050;8.690;2023-07-24T03:32:18;18.70;99.90
22908;DHT22;11620;50.050;8.690;2023-07-24T03:35:06;18.70;99.90
22908;DHT22;11620;50.050;8.690;2023-07-24T03:37:52;18.60;99.90
22908;DHT22;11620;50.050;8.690;2023-07-24T03:40:38;18.70;99.90
22908;DHT22;11620;50.050;8.690;2023-07-24T03:43:25;18.70;99.90
22908;DHT22;11620;50.050;8.690;2023-07-24T03:46:11;18.70;99.90
22908;DHT22;11620;50.050;8.690;2023-07-24T03:48:57;18.80;99.90
22908;DHT22;11620;50.050;8.690;2023-07-24T03:51:44;18.90;99.90
22908;DHT22;11620;50.050;8.690;2023-07-24T03:54:30;18.90;99.90
22908;DHT22;11620;50.050;8.690;2023-07-24T03:57:16;19.00;99.90
22908;DHT22;11620;50.050;8.690;2023-07-24T04:00:03;19.00;99.90
22908;DHT22;11620;50.050;8.690;2023-07-24T04:02:49;19.00;99.90
22908;DHT22;11620;50.050;8.690;2023-07-24T04:05:36;19.00;99.90
22908;DHT22;11620;50.050;8.690;2023-07-24T04:08:22;19.00;99.90
22908;DHT22;11620;50.050;8.690;2023-07-24T04:11:09;19.00;99.90
22908;DHT22;11620;50.050;8.690;2023-07-24T04:13:55;19.00;99.90
22908;DHT22;11620;50.050;8.690;2023-07-24T04:16:41;19.00;99.90
22908;DHT22;11620;50.050;8.690;2023-07-24T04:19:28;19.00;99.90
22908;DHT22;11620;50.050;8.690;2023-07-24T04:22:14;19.10;99.90
22908;DHT22;11620;50.050;8.690;2023-07-24T04:25:00;19.10;99.90
22908;DHT22;11620;50.050;8.690;2023-07-24T04:27:47;19.10;99.90
22908;DHT22;11620;50.050;8.690;2023-07-24T04:30:33;19.10;99.90
22908;DHT22;11620;50.050;8.690;2023-07-24T04:33:19;19.10;99.90
22908;DHT22;11620;50.050;8.690;2023-07-24T04:36:06;19.00;99.90
22908;DHT22;11620;50.050;8.690;2023-07-24T04:38:52;19.00;99.90
22908;DHT22;11620;50.050;8.690;2023-07-24T04:41:38;19.00;99.90
22908;DHT22;11620;50.050;8.690;2023-07-24T04:44:25;19.10;99.90
22908;DHT22;11620;50.050;8.690;2023-07-24T04:47:11;19.10;99.90
22908;DHT22;11620;50.050;8.690;2023-07-24T04:49:57;19.20;99.90
22908;DHT22;11620;50.050;8.690;2023-07-24T04:52:44;19.20;99.90
22908;DHT22;11620;50.050;8.690;2023-07-24T04:55:30;19.20;99.90
22908;DHT22;11620;50.050;8.690;2023-07-24T04:58:16;19.20;99.90
22908;DHT22;11620;50.050;8.690;2023-07-24T05:01:04;19.20;99.90
22908;DHT22;11620;50.050;8.690;2023-07-24T05:03:50;19.20;99.90
22908;DHT22;11620;50.050;8.690;2023-07-24T05:06:36;19.20;99.90
22908;DHT22;11620;50.050;8.690;2023-07-24T05:09:24;19.20;99.90
22908;DHT22;11620;50.050;8.690;2023-07-24T05:12:10;19.30;99.90
22908;DHT22;11620;50.050;8.690;2023-07-24T05:14:57;19.30;99.90
22908;DHT22;11620;50.050;8.690;2023-07-24T05:17:43;19.30;99.90
22908;DHT22;11620;50.050;8.690;2023-07-24T05:20:30;19.30;99.90
22908;DHT22;11620;50.050;8.690;2023-07-24T05:23:16;19.30;99.90
22908;DHT22;11620;50.050;8.690;2023-07-24T05:26:03;19.30;99.90
22908;DHT22;11620;50.050;8.690;2023-07-24T05:28:50;19.30;99.90
22908;DHT22;11620;50.050;8.690;2023-07-24T05:31:36;19.40;99.90
22908;DHT22;11620;50.050;8.690;2023-07-24T05:34:22;19.40;99.90
22908;DHT22;11620;50.050;8.690;2023-07-24T05:37:09;19.50;99.90
22908;DHT22;11620;50.050;8.690;2023-07-24T05:39:55;19.50;99.90
22908;DHT22;11620;50.050;8.690;2023-07-24T05:42:42;19.50;99.90
22908;DHT22;11620;50.050;8.690;2023-07-24T05:45:29;19.60;99.90
22908;DHT22;11620;50.050;8.690;2023-07-24T05:48:15;19.60;99.90
22908;DHT22;11620;50.050;8.690;2023-07-24T05:51:02;19.50;99.90
22908;DHT22;11620;50.050;8.690;2023-07-24T05:53:49;19.40;99.90
22908;DHT22;11620;50.050;8.690;2023-07-24T05:56:35;19.40;99.90
22908;DHT22;11620;50.050;8.690;2023-07-24T05:59:21;19.40;99.90
22908;DHT22;11620;50.050;8.690;2023-07-24T06:02:08;19.50;99.90
22908;DHT22;11620;50.050;8.690;2023-07-24T06:04:55;19.50;99.90
22908;DHT22;11620;50.050;8.690;2023-07-24T06:07:41;19.50;99.90
22908;DHT22;11620;50.050;8.690;2023-07-24T06:10:28;19.50;99.90
22908;DHT22;11620;50.050;8.690;2023-07-24T06:13:15;19.20;99.90
22908;DHT22;11620;50.050;8.690;2023-07-24T06:16:02;19.30;99.90
22908;DHT22;11620;50.050;8.690;2023-07-24T06:18:48;19.20;99.90
22908;DHT22;11620;50.050;8.690;2023-07-24T06:21:34;19.00;99.90
22908;DHT22;11620;50.050;8.690;2023-07-24T06:24:21;19.10;99.90
22908;DHT22;11620;50.050;8.690;2023-07-24T06:27:07;19.10;99.90
22908;DHT22;11620;50.050;8.690;2023-07-24T06:29:54;19.20;99.90
22908;DHT22;11620;50.050;8.690;2023-07-24T06:32:40;19.10;99.90
22908;DHT22;11620;50.050;8.690;2023-07-24T06:35:27;19.30;99.90
22908;DHT22;11620;50.050;8.690;2023-07-24T06:38:13;19.30;99.90
22908;DHT22;11620;50.050;8.690;2023-07-24T06:40:59;19.40;99.90
22908;DHT22;11620;50.050;8.690;2023-07-24T06:43:46;19.20;99.90
22908;DHT22;11620;50.050;8.690;2023-07-24T06:46:32;19.40;99.90
22908;DHT22;11620;50.050;8.690;2023-07-24T06:49:18;19.60;99.90
22908;DHT22;11620;50.050;8.690;2023-07-24T06:52:05;19.50;99.90
22908;DHT22;11620;50.050;8.690;2023-07-24T06:54:51;19.50;99.90
22908;DHT22;11620;50.050;8.690;2023-07-24T06:57:37;19.60;99.90
22908;DHT22;11620;50.050;8.690;2023-07-24T07:00:24;19.60;99.90
22908;DHT22;11620;50.050;8.690;2023-07-24T07:03:10;19.60;99.90
22908;DHT22;11620;50.050;8.690;2023-07-24T07:06:00;19.70;99.90
22908;DHT22;11620;50.050;8.690;2023-07-24T07:08:46;19.70;99.90
22908;DHT22;11620;50.050;8.690;2023-07-24T07:11:32;19.70;99.90
22908;DHT22;11620;50.050;8.690;2023-07-24T07:14:19;19.70;99.90
22908;DHT22;11620;50.050;8.690;2023-07-24T07:17:05;19.90;99.90
22908;DHT22;11620;50.050;8.690;2023-07-24T07:19:51;19.80;99.90
22908;DHT22;11620;50.050;8.690;2023-07-24T07:22:38;20.00;99.90
22908;DHT22;11620;50.050;8.690;2023-07-24T07:25:24;20.10;99.90
22908;DHT22;11620;50.050;8.690;2023-07-24T07:28:15;20.20;99.90
22908;DHT22;11620;50.050;8.690;2023-07-24T07:31:01;20.40;99.90
22908;DHT22;11620;50.050;8.690;2023-07-24T07:33:48;20.60;99.90
22908;DHT22;11620;50.050;8.690;2023-07-24T07:36:34;20.70;99.90
22908;DHT22;11620;50.050;8.690;2023-07-24T07:39:21;20.80;99.90
22908;DHT22;11620;50.050;8.690;2023-07-24T07:42:07;20.90;99.90
22908;DHT22;11620;50.050;8.690;2023-07-24T07:44:53;20.80;99.90
22908;DHT22;11620;50.050;8.690;2023-07-24T07:47:40;21.00;99.90
22908;DHT22;11620;50.050;8.690;2023-07-24T07:50:26;21.00;99.90
22908;DHT22;11620;50.050;8.690;2023-07-24T07:53:12;21.10;99.90
22908;DHT22;11620;50.050;8.690;2023-07-24T07:55:59;21.00;99.90
22908;DHT22;11620;50.050;8.690;2023-07-24T07:58:45;21.10;99.90
22908;DHT22;11620;50.050;8.690;2023-07-24T08:01:32;21.40;99.90
22908;DHT22;11620;50.050;8.690;2023-07-24T08:04:18;21.60;99.90
22908;DHT22;11620;50.050;8.690;2023-07-24T08:07:05;21.50;99.90
22908;DHT22;11620;50.050;8.690;2023-07-24T08:09:51;21.60;99.90
22908;DHT22;11620;50.050;8.690;2023-07-24T08:12:37;21.90;99.90
22908;DHT22;11620;50.050;8.690;2023-07-24T08:15:24;22.20;99.90
22908;DHT22;11620;50.050;8.690;2023-07-24T08:18:10;22.00;99.90
22908;DHT22;11620;50.050;8.690;2023-07-24T08:20:56;21.90;99.90
22908;DHT22;11620;50.050;8.690;2023-07-24T08:23:43;21.80;99.90
22908;DHT22;11620;50.050;8.690;2023-07-24T08:26:29;21.70;99.90
22908;DHT22;11620;50.050;8.690;2023-07-24T08:29:15;21.60;99.90
22908;DHT22;11620;50.050;8.690;2023-07-24T08:32:02;21.90;99.90
22908;DHT22;11620;50.050;8.690;2023-07-24T08:34:49;22.20;99.90
22908;DHT22;11620;50.050;8.690;2023-07-24T08:37:35;22.20;99.90
22908;DHT22;11620;50.050;8.690;2023-07-24T08:40:21;22.10;99.90
22908;DHT22;11620;50.050;8.690;2023-07-24T08:43:08;22.00;99.90
22908;DHT22;11620;50.050;8.690;2023-07-24T08:45:54;22.10;99.90
22908;DHT22;11620;50.050;8.690;2023-07-24T08:48:41;21.90;99.90
22908;DHT22;11620;50.050;8.690;2023-07-24T08:51:28;21.80;99.90
22908;DHT22;11620;50.050;8.690;2023-07-24T08:54:16;21.90;99.90
22908;DHT22;11620;50.050;8.690;2023-07-24T08:57:06;21.80;99.90
22908;DHT22;11620;50.050;8.690;2023-07-24T08:59:52;21.80;99.90
22908;DHT22;11620;50.050;8.690;2023-07-24T09:02:39;21.90;99.90
22908;DHT22;11620;50.050;8.690;2023-07-24T09:05:25;22.30;99.90
22908;DHT22;11620;50.050;8.690;2023-07-24T09:08:11;22.30;99.90
22908;DHT22;11620;50.050;8.690;2023-07-24T09:10:59;22.40;99.90
22908;DHT22;11620;50.050;8.690;2023-07-24T09:13:45;22.40;99.90
22908;DHT22;11620;50.050;8.690;2023-07-24T09:16:32;22.80;99.90
22908;DHT22;11620;50.050;8.690;2023-07-24T09:19:21;22.90;99.90
22908;DHT22;11620;50.050;8.690;2023-07-24T09:22:12;22.90;99.90
22908;DHT22;11620;50.050;8.690;2023-07-24T09:24:58;23.00;99.90
22908;DHT22;11620;50.050;8.690;2023-07-24T09:27:45;22.80;99.90
22908;DHT22;11620;50.050;8.690;2023-07-24T09:30:32;23.00;99.90
22908;DHT22;11620;50.050;8.690;2023-07-24T09:33:18;23.00;99.90
22908;DHT22;11620;50.050;8.690;2023-07-24T09:36:06;22.90;99.90
22908;DHT22;11620;50.050;8.690;2023-07-24T09:39:00;22.80;99.90
22908;DHT22;11620;50.050;8.690;2023-07-24T09:41:47;22.90;99.90
22908;DHT22;11620;50.050;8.690;2023-07-24T09:44:35;22.70;99.90
22908;DHT22;11620;50.050;8.690;2023-07-24T09:47:22;22.60;99.90
22908;DHT22;11620;50.050;8.690;2023-07-24T09:50:08;22.50;99.90
22908;DHT22;11620;50.050;8.690;2023-07-24T09:52:56;22.50;99.90
22908;DHT22;11620;50.050;8.690;2023-07-24T09:55:57;22.40;99.90
22908;DHT22;11620;50.050;8.690;2023-07-24T09:58:44;22.40;99.90
22908;DHT22;11620;50.050;8.690;2023-07-24T10:01:31;22.40;99.90
22908;DHT22;11620;50.050;8.690;2023-07-24T10:04:19;22.50;99.90
22908;DHT22;11620;50.050;8.690;2023-07-24T10:07:06;22.70;99.90
22908;DHT22;11620;50.050;8.690;2023-07-24T10:09:53;22.80;99.90
22908;DHT22;11620;50.050;8.690;2023-07-24T10:12:41;23.00;99.90
22908;DHT22;11620;50.050;8.690;2023-07-24T10:15:28;22.90;99.90
22908;DHT22;11620;50.050;8.690;2023-07-24T10:18:16;22.90;99.90
22908;DHT22;11620;50.050;8.690;2023-07-24T10:21:08;22.90;99.90
22908;DHT22;11620;50.050;8.690;2023-07-24T10:23:55;22.90;99.90
22908;DHT22;11620;50.050;8.690;2023-07-24T10:26:45;23.00;99.90
22908;DHT22;11620;50.050;8.690;2023-07-24T10:29:35;22.70;99.90
22908;DHT22;11620;50.050;8.690;2023-07-24T10:32:22;22.50;99.90
22908;DHT22;11620;50.050;8.690;2023-07-24T10:35:09;22.50;99.90
22908;DHT22;11620;50.050;8.690;2023-07-24T10:38:02;22.60;99.90
22908;DHT22;11620;50.050;8.690;2023-07-24T10:40:48;22.50;99.90
22908;DHT22;11620;50.050;8.690;2023-07-24T10:43:47;22.70;99.90
22908;DHT22;11620;50.050;8.690;2023-07-24T10:46:38;22.90;99.90
22908;DHT22;11620;50.050;8.690;2023-07-24T10:49:25;23.10;99.90
22908;DHT22;11620;50.050;8.690;2023-07-24T10:52:11;23.20;99.90
22908;DHT22;11620;50.050;8.690;2023-07-24T10:55:03;23.30;99.90
22908;DHT22;11620;50.050;8.690;2023-07-24T10:57:52;23.20;99.90
22908;DHT22;11620;50.050;8.690;2023-07-24T11:00:40;23.20;99.90
22908;DHT22;11620;50.050;8.690;2023-07-24T11:03:27;23.20;99.90
22908;DHT22;11620;50.050;8.690;2023-07-24T11:06:15;23.50;99.90
22908;DHT22;11620;50.050;8.690;2023-07-24T11:09:01;23.20;99.90
22908;DHT22;11620;50.050;8.690;2023-07-24T11:11:48;23.20;99.90
22908;DHT22;11620;50.050;8.690;2023-07-24T11:14:52;23.60;99.90
22908;DHT22;11620;50.050;8.690;2023-07-24T11:17:42;23.50;99.90
22908;DHT22;11620;50.050;8.690;2023-07-24T11:20:28;23.70;99.90
22908;DHT22;11620;50.050;8.690;2023-07-24T11:23:15;23.40;99.90
22908;DHT22;11620;50.050;8.690;2023-07-24T11:26:04;23.50;99.90
22908;DHT22;11620;50.050;8.690;2023-07-24T11:28:53;23.80;99.90
22908;DHT22;11620;50.050;8.690;2023-07-24T11:31:39;24.00;99.90
22908;DHT22;11620;50.050;8.690;2023-07-24T11:34:26;24.20;99.90
22908;DHT22;11620;50.050;8.690;2023-07-24T11:37:12;24.10;99.90
22908;DHT22;11620;50.050;8.690;2023-07-24T11:40:00;23.90;99.90
22908;DHT22;11620;50.050;8.690;2023-07-24T11:42:55;24.10;99.90
22908;DHT22;11620;50.050;8.690;2023-07-24T11:45:42;24.00;99.90
22908;DHT22;11620;50.050;8.690;2023-07-24T11:48:29;24.00;99.90
22908;DHT22;11620;50.050;8.690;2023-07-24T11:51:15;23.90;99.90
22908;DHT22;11620;50.050;8.690;2023-07-24T11:54:08;24.00;99.90
22908;DHT22;11620;50.050;8.690;2023-07-24T11:56:55;24.20;99.90
22908;DHT22;11620;50.050;8.690;2023-07-24T11:59:43;24.10;99.90
22908;DHT22;11620;50.050;8.690;2023-07-24T12:02:32;24.00;99.90
22908;DHT22;11620;50.050;8.690;2023-07-24T12:05:19;24.00;99.90
22908;DHT22;11620;50.050;8.690;2023-07-24T12:08:05;24.20;99.90
22908;DHT22;11620;50.050;8.690;2023-07-24T12:10:51;24.00;99.90
22908;DHT22;11620;50.050;8.690;2023-07-24T12:13:38;24.10;99.90
22908;DHT22;11620;50.050;8.690;2023-07-24T12:16:24;24.20;99.90
22908;DHT22;11620;50.050;8.690;2023-07-24T12:19:11;24.50;99.90
22908;DHT22;11620;50.050;8.690;2023-07-24T12:21:57;24.90;99.90
22908;DHT22;11620;50.050;8.690;2023-07-24T12:24:43;24.70;99.90
22908;DHT22;11620;50.050;8.690;2023-07-24T12:27:30;24.90;99.90
22908;DHT22;11620;50.050;8.690;2023-07-24T12:30:17;24.80;99.90
22908;DHT22;11620;50.050;8.690;2023-07-24T12:33:03;24.70;99.90
22908;DHT22;11620;50.050;8.690;2023-07-24T12:35:50;24.50;99.90
22908;DHT22;11620;50.050;8.690;2023-07-24T12:38:37;24.50;99.90
22908;DHT22;11620;50.050;8.690;2023-07-24T12:41:23;24.80;99.90
22908;DHT22;11620;50.050;8.690;2023-07-24T12:44:10;25.30;99.90
22908;DHT22;11620;50.050;8.690;2023-07-24T12:46:56;25.50;99.90
22908;DHT22;11620;50.050;8.690;2023-07-24T12:49:43;25.20;99.90
22908;DHT22;11620;50.050;8.690;2023-07-24T12:52:29;24.70;99.90
22908;DHT22;11620;50.050;8.690;2023-07-24T12:55:16;24.70;99.90
22908;DHT22;11620;50.050;8.690;2023-07-24T12:58:03;24.90;99.90
22908;DHT22;11620;50.050;8.690;2023-07-24T13:00:50;25.10;99.90
22908;DHT22;11620;50.050;8.690;2023-07-24T13:03:36;25.20;99.90
22908;DHT22;11620;50.050;8.690;2023-07-24T13:06:22;24.90;99.90
22908;DHT22;11620;50.050;8.690;2023-07-24T13:09:09;24.40;99.90
22908;DHT22;11620;50.050;8.690;2023-07-24T13:11:55;24.20;99.90
22908;DHT22;11620;50.050;8.690;2023-07-24T13:14:42;24.00;99.90
22908;DHT22;11620;50.050;8.690;2023-07-24T13:17:28;23.80;99.90
22908;DHT22;11620;50.050;8.690;2023-07-24T13:20:16;23.70;99.90
22908;DHT22;11620;50.050;8.690;2023-07-24T13:27:19;23.70;99.90
22908;DHT22;11620;50.050;8.690;2023-07-24T13:30:05;23.60;99.90
22908;DHT22;11620;50.050;8.690;2023-07-24T13:32:52;23.40;99.90
22908;DHT22;11620;50.050;8.690;2023-07-24T13:35:38;23.40;99.90
22908;DHT22;11620;50.050;8.690;2023-07-24T13:38:26;23.50;99.90
22908;DHT22;11620;50.050;8.690;2023-07-24T13:41:12;23.60;99.90
22908;DHT22;11620;50.050;8.690;2023-07-24T13:43:58;23.60;99.90
22908;DHT22;11620;50.050;8.690;2023-07-24T13:46:45;23.60;99.90
22908;DHT22;11620;50.050;8.690;2023-07-24T13:49:31;23.50;99.90
22908;DHT22;11620;50.050;8.690;2023-07-24T13:52:17;23.30;99.90
22908;DHT22;11620;50.050;8.690;2023-07-24T13:55:04;23.20;99.90
22908;DHT22;11620;50.050;8.690;2023-07-24T13:57:51;23.30;99.90
22908;DHT22;11620;50.050;8.690;2023-07-24T14:00:37;22.80;99.90
22908;DHT22;11620;50.050;8.690;2023-07-24T14:03:23;21.50;99.90
22908;DHT22;11620;50.050;8.690;2023-07-24T14:06:14;21.60;99.90
22908;DHT22;11620;50.050;8.690;2023-07-24T14:09:01;21.50;99.90
22908;DHT22;11620;50.050;8.690;2023-07-24T14:11:47;21.80;99.90
22908;DHT22;11620;50.050;8.690;2023-07-24T14:14:33;21.60;99.90
22908;DHT22;11620;50.050;8.690;2023-07-24T14:17:20;21.50;99.90
22908;DHT22;11620;50.050;8.690;2023-07-24T14:20:07;21.60;99.90
22908;DHT22;11620;50.050;8.690;2023-07-24T14:22:54;21.40;99.90
22908;DHT22;11620;50.050;8.690;2023-07-24T14:25:41;21.40;99.90
22908;DHT22;11620;50.050;8.690;2023-07-24T14:28:27;21.50;99.90
22908;DHT22;11620;50.050;8.690;2023-07-24T14:31:13;21.70;99.90
22908;DHT22;11620;50.050;8.690;2023-07-24T14:34:00;21.90;99.90
22908;DHT22;11620;50.050;8.690;2023-07-24T14:36:46;22.20;99.90
22908;DHT22;11620;50.050;8.690;2023-07-24T14:39:32;22.50;99.90
22908;DHT22;11620;50.050;8.690;2023-07-24T14:42:19;22.40;99.90
22908;DHT22;11620;50.050;8.690;2023-07-24T14:45:06;22.40;99.90
22908;DHT22;11620;50.050;8.690;2023-07-24T14:47:52;22.70;99.90
22908;DHT22;11620;50.050;8.690;2023-07-24T14:50:38;22.50;99.90
22908;DHT22;11620;50.050;8.690;2023-07-24T14:53:25;22.70;99.90
22908;DHT22;11620;50.050;8.690;2023-07-24T14:56:11;22.60;99.90
22908;DHT22;11620;50.050;8.690;2023-07-24T14:58:57;22.50;99.90
22908;DHT22;11620;50.050;8.690;2023-07-24T15:01:44;22.70;99.90
22908;DHT22;11620;50.050;8.690;2023-07-24T15:04:30;22.90;99.90
22908;DHT22;11620;50.050;8.690;2023-07-24T15:07:16;23.00;99.90
22908;DHT22;11620;50.050;8.690;2023-07-24T15:10:03;22.70;99.90
22908;DHT22;11620;50.050;8.690;2023-07-24T15:12:50;22.60;99.90
22908;DHT22;11620;50.050;8.690;2023-07-24T15:15:36;22.90;99.90
22908;DHT22;11620;50.050;8.690;2023-07-24T15:18:23;23.00;99.90
22908;DHT22;11620;50.050;8.690;2023-07-24T15:21:10;22.70;99.90
22908;DHT22;11620;50.050;8.690;2023-07-24T15:23:56;22.50;99.90
22908;DHT22;11620;50.050;8.690;2023-07-24T15:26:44;22.40;99.90
22908;DHT22;11620;50.050;8.690;2023-07-24T15:29:30;22.30;99.90
22908;DHT22;11620;50.050;8.690;2023-07-24T15:32:17;22.20;99.90
22908;DHT22;11620;50.050;8.690;2023-07-24T15:35:04;22.10;99.90
22908;DHT22;11620;50.050;8.690;2023-07-24T15:37:50;22.00;99.90
22908;DHT22;11620;50.050;8.690;2023-07-24T15:40:16;21.60;99.90
22908;DHT22;11620;50.050;8.690;2023-07-24T15:43:01;21.40;99.90
22908;DHT22;11620;50.050;8.690;2023-07-24T15:45:47;21.30;99.90
22908;DHT22;11620;50.050;8.690;2023-07-24T15:48:35;21.30;99.90
22908;DHT22;11620;50.050;8.690;2023-07-24T15:51:21;21.30;99.90
22908;DHT22;11620;50.050;8.690;2023-07-24T15:54:08;21.10;99.90
22908;DHT22;11620;50.050;8.690;2023-07-24T15:56:56;21.20;99.90
22908;DHT22;11620;50.050;8.690;2023-07-24T15:59:42;21.00;99.90
22908;DHT22;11620;50.050;8.690;2023-07-24T16:02:28;20.60;99.90
22908;DHT22;11620;50.050;8.690;2023-07-24T16:05:17;20.50;99.90
22908;DHT22;11620;50.050;8.690;2023-07-24T16:08:04;20.90;99.90
22908;DHT22;11620;50.050;8.690;2023-07-24T16:10:50;20.70;99.90
22908;DHT22;11620;50.050;8.690;2023-07-24T16:13:41;20.90;99.90
22908;DHT22;11620;50.050;8.690;2023-07-24T16:16:27;20.80;99.90
22908;DHT22;11620;50.050;8.690;2023-07-24T16:22:05;20.90;99.90
22908;DHT22;11620;50.050;8.690;2023-07-24T16:24:52;20.80;99.90
22908;DHT22;11620;50.050;8.690;2023-07-24T16:27:38;20.70;99.90
22908;DHT22;11620;50.050;8.690;2023-07-24T16:30:24;20.50;99.90
22908;DHT22;11620;50.050;8.690;2023-07-24T16:33:11;20.50;99.90
22908;DHT22;11620;50.050;8.690;2023-07-24T16:35:57;20.50;99.90
22908;DHT22;11620;50.050;8.690;2023-07-24T16:38:43;20.50;99.90
22908;DHT22;11620;50.050;8.690;2023-07-24T16:41:30;20.50;99.90
22908;DHT22;11620;50.050;8.690;2023-07-24T16:44:16;20.60;99.90
22908;DHT22;11620;50.050;8.690;2023-07-24T16:47:03;20.60;99.90
22908;DHT22;11620;50.050;8.690;2023-07-24T16:49:49;20.60;99.90
22908;DHT22;11620;50.050;8.690;2023-07-24T16:52:35;20.50;99.90
22908;DHT22;11620;50.050;8.690;2023-07-24T16:55:22;20.70;99.90
22908;DHT22;11620;50.050;8.690;2023-07-24T16:58:08;20.70;99.90
22908;DHT22;11620;50.050;8.690;2023-07-24T17:00:54;20.70;99.90
22908;DHT22;11620;50.050;8.690;2023-07-24T17:03:41;20.70;99.90
22908;DHT22;11620;50.050;8.690;2023-07-24T17:06:27;20.70;99.90
22908;DHT22;11620;50.050;8.690;2023-07-24T17:09:13;20.60;99.90
22908;DHT22;11620;50.050;8.690;2023-07-24T17:12:00;20.50;99.90
22908;DHT22;11620;50.050;8.690;2023-07-24T17:14:47;20.60;99.90
22908;DHT22;11620;50.050;8.690;2023-07-24T17:17:34;20.60;99.90
22908;DHT22;11620;50.050;8.690;2023-07-24T17:20:20;20.60;99.90
22908;DHT22;11620;50.050;8.690;2023-07-24T17:23:06;20.70;99.90
22908;DHT22;11620;50.050;8.690;2023-07-24T17:25:53;20.60;99.90
22908;DHT22;11620;50.050;8.690;2023-07-24T17:28:39;20.70;99.90
22908;DHT22;11620;50.050;8.690;2023-07-24T17:31:26;20.70;99.90
22908;DHT22;11620;50.050;8.690;2023-07-24T17:34:12;20.80;99.90
22908;DHT22;11620;50.050;8.690;2023-07-24T17:36:58;20.80;99.90
22908;DHT22;11620;50.050;8.690;2023-07-24T17:39:45;20.80;99.90
22908;DHT22;11620;50.050;8.690;2023-07-24T17:42:31;20.80;99.90
22908;DHT22;11620;50.050;8.690;2023-07-24T17:45:18;20.70;99.90